Terminal Aerodrome Forecast
Issued by NWS

Home | Current Version | Previous Version | Text Only | Print | Product List | Glossary On
Versions: 1 2 3 4 5 6 7 8 9 10 11 12 13 14 15 16 17 18 19 20 21 22 23 24 25 26 27
000
FTUS45 KABQ 230404 AAA
TAFLVS
TAF AMD
KLVS 230404Z 2304/2324 18010KT P6SM SCT015 BKN100
      TEMPO 2304/2308 BKN015
     FM230800 16007KT P6SM BKN009
     FM231500 22015KT P6SM SCT025
     FM231800 23022G32KT P6SM FEW100=

USA.gov is the U.S. government's official web portal to all federal, state and local government web resources and services.